createdAt,value
2017-10-03T08:38:49.374Z,1014.09
2017-10-03T08:40:11.883Z,1014.06
2017-10-03T08:41:34.350Z,1014.03
2017-10-03T08:42:56.883Z,1014.06
2017-10-03T08:44:18.694Z,1014.09
2017-10-03T08:45:40.876Z,1014.09
2017-10-03T08:47:02.717Z,1014.12
2017-10-03T08:48:24.567Z,1014.19
2017-10-03T08:49:46.730Z,1014.21
2017-10-03T08:51:08.557Z,1014.21
2017-10-03T08:52:30.865Z,1014.18
2017-10-03T08:53:53.444Z,1014.21
2017-10-03T08:55:15.583Z,1014.26
2017-10-03T08:56:37.743Z,1014.31
2017-10-03T08:57:59.233Z,1014.32
2017-10-03T08:59:21.363Z,1014.23
2017-10-03T09:00:43.845Z,1014.28
2017-10-03T09:02:06.013Z,1014.3
2017-10-03T09:03:28.493Z,1014.3
2017-10-03T09:04:51.047Z,1014.36
2017-10-03T09:06:13.183Z,1014.4
2017-10-03T09:07:35.333Z,1014.36
2017-10-03T09:08:57.492Z,1014.37
2017-10-03T09:10:19.954Z,1014.44
2017-10-03T09:11:42.095Z,1014.52
2017-10-03T09:13:03.967Z,1014.44
2017-10-03T09:14:26.163Z,1014.5
2017-10-03T09:15:48.346Z,1014.45
2017-10-03T09:17:10.825Z,1014.49
2017-10-03T09:18:32.353Z,1014.47
2017-10-03T09:19:54.186Z,1014.47
2017-10-03T09:21:16.766Z,1014.49
2017-10-03T09:22:38.718Z,1014.45
2017-10-03T09:24:00.885Z,1014.55
2017-10-03T09:25:23.107Z,1014.6
2017-10-03T09:26:45.364Z,1014.65
2017-10-03T09:28:07.187Z,1014.66
2017-10-03T09:29:29.656Z,1014.65
2017-10-03T09:30:52.105Z,1014.68
2017-10-03T09:32:14.354Z,1014.64
2017-10-03T09:33:36.322Z,1014.59
2017-10-03T09:34:58.204Z,1014.67
2017-10-03T09:36:20.355Z,1014.73
2017-10-03T09:37:42.515Z,1014.84
2017-10-03T09:39:04.663Z,1014.83
2017-10-03T09:40:27.157Z,1014.79
2017-10-03T09:41:49.336Z,1014.75
2017-10-03T09:43:11.508Z,1014.77
2017-10-03T09:44:34.045Z,1014.78
2017-10-03T09:45:56.184Z,1014.86
2017-10-03T09:47:18.704Z,1014.92
2017-10-03T09:48:40.864Z,1014.86
2017-10-03T09:50:02.717Z,1014.89
2017-10-03T09:51:24.864Z,1014.86
2017-10-03T09:52:47.363Z,1014.84
2017-10-03T09:54:09.206Z,1014.82
2017-10-03T09:55:31.332Z,1014.9
2017-10-03T09:56:52.929Z,1014.85
2017-10-03T09:58:15.459Z,1014.9
2017-10-03T09:59:37.654Z,1014.93
2017-10-03T10:01:00.284Z,1014.91
2017-10-03T10:02:22.792Z,1014.93
2017-10-03T10:03:45.302Z,1014.91
2017-10-03T10:05:07.474Z,1014.99
2017-10-03T10:06:30.144Z,1015.01
2017-10-03T10:07:52.733Z,1015.09
2017-10-03T10:09:14.563Z,1015.08
2017-10-03T10:10:36.485Z,1015.06
2017-10-03T10:11:58.345Z,1015.07
2017-10-03T10:13:20.202Z,1015.06
2017-10-03T10:14:42.385Z,1015.2
2017-10-03T10:16:04.204Z,1015.23
2017-10-03T10:17:26.688Z,1015.2
2017-10-03T10:18:48.934Z,1015.27
2017-10-03T10:20:10.904Z,1015.25
2017-10-03T10:21:32.724Z,1015.22
2017-10-03T10:22:54.934Z,1015.13
2017-10-03T10:24:17.526Z,1015.24
2017-10-03T10:25:40.004Z,1015.14
2017-10-03T10:27:02.509Z,1015.19
2017-10-03T10:28:24.361Z,1015.28
2017-10-03T10:29:46.322Z,1015.35
2017-10-03T10:31:07.507Z,1015.28
2017-10-03T10:32:29.699Z,1015.4
2017-10-03T10:33:51.543Z,1015.48
2017-10-03T10:35:13.700Z,1015.44
2017-10-03T10:36:35.543Z,1015.47
2017-10-03T10:37:57.687Z,1015.52
2017-10-03T10:39:20.160Z,1015.5
2017-10-03T10:40:42.422Z,1015.6
2017-10-03T10:42:04.606Z,1015.56
2017-10-03T10:43:26.767Z,1015.52
2017-10-03T10:44:48.639Z,1015.62
2017-10-03T10:46:10.814Z,1015.66
2017-10-03T10:47:33.307Z,1015.64
2017-10-03T10:48:54.824Z,1015.65
2017-10-03T10:50:16.368Z,1015.58
2017-10-03T10:51:38.225Z,1015.64
2017-10-03T10:53:00.819Z,1015.64
2017-10-03T10:54:22.963Z,1015.67
2017-10-03T10:55:44.814Z,1015.62
2017-10-03T10:57:06.974Z,1015.66
2017-10-03T10:58:28.650Z,1015.6
2017-10-03T10:59:51.136Z,1015.69
2017-10-03T11:01:13.620Z,1015.74
2017-10-03T11:02:36.139Z,1015.73
2017-10-03T11:03:58.621Z,1015.74
2017-10-03T11:05:20.463Z,1015.75
2017-10-03T11:06:42.933Z,1015.74
2017-10-03T11:08:05.074Z,1015.81
2017-10-03T11:09:26.921Z,1015.89
2017-10-03T11:10:49.435Z,1015.91
2017-10-03T11:12:11.751Z,1015.92
2017-10-03T11:13:34.035Z,1015.9
2017-10-03T11:14:55.873Z,1015.92
2017-10-03T11:16:18.282Z,1016
2017-10-03T11:17:40.482Z,1015.99
2017-10-03T11:19:02.306Z,1016.13
2017-10-03T11:20:24.464Z,1016.2
2017-10-03T11:21:46.763Z,1016.13
2017-10-03T11:23:09.364Z,1016.16
2017-10-03T11:24:31.821Z,1016.13
2017-10-03T11:25:53.656Z,1016.13
2017-10-03T11:27:15.823Z,1016.11
2017-10-03T11:28:37.333Z,1016.2
2017-10-03T11:29:59.475Z,1016.17
2017-10-03T11:31:21.701Z,1016.18
2017-10-03T11:32:44.199Z,1016.2
2017-10-03T11:34:06.478Z,1016.16
2017-10-03T11:35:28.614Z,1016.14
2017-10-03T11:36:50.773Z,1016.24
2017-10-03T11:38:13.073Z,1016.23
2017-10-03T11:39:34.905Z,1016.21
2017-10-03T11:40:57.056Z,1016.25
2017-10-03T11:42:19.543Z,1016.19
2017-10-03T11:43:41.699Z,1016.2
2017-10-03T11:45:04.004Z,1016.19
2017-10-03T11:46:26.473Z,1016.22
2017-10-03T11:47:48.418Z,1016.22
2017-10-03T11:49:10.894Z,1016.18
2017-10-03T11:50:33.091Z,1016.27
2017-10-03T11:51:55.253Z,1016.25
2017-10-03T11:53:17.456Z,1016.29
2017-10-03T11:54:39.644Z,1016.27
2017-10-03T11:56:01.893Z,1016.3
2017-10-03T11:57:23.392Z,1016.36
2017-10-03T11:58:46.024Z,1016.36
2017-10-03T12:00:08.914Z,1016.39
2017-10-03T12:01:30.834Z,1016.49
2017-10-03T12:02:52.676Z,1016.46
2017-10-03T12:04:14.514Z,1016.44
2017-10-03T12:05:37.017Z,1016.49
2017-10-03T12:06:58.220Z,1016.59
2017-10-03T12:08:20.404Z,1016.6
2017-10-03T12:09:42.904Z,1016.61
2017-10-03T12:11:05.764Z,1016.62
2017-10-03T12:12:28.244Z,1016.66
2017-10-03T12:13:50.816Z,1016.69
2017-10-03T12:15:12.965Z,1016.69
2017-10-03T12:16:35.470Z,1016.68
2017-10-03T12:17:57.583Z,1016.69
2017-10-03T12:19:19.756Z,1016.61
2017-10-03T12:20:41.610Z,1016.59
2017-10-03T12:22:04.156Z,1016.58
2017-10-03T12:23:26.820Z,1016.57
2017-10-03T12:24:48.397Z,1016.55
2017-10-03T12:26:10.885Z,1016.67
2017-10-03T12:27:33.070Z,1016.64
2017-10-03T12:28:55.303Z,1016.67
2017-10-03T12:30:17.894Z,1016.66
2017-10-03T12:31:39.731Z,1016.69
2017-10-03T12:33:02.232Z,1016.7
2017-10-03T12:34:24.705Z,1016.64
2017-10-03T12:35:46.875Z,1016.7
2017-10-03T12:37:09.104Z,1016.71
2017-10-03T12:38:31.924Z,1016.74
2017-10-03T12:39:54.095Z,1016.74
2017-10-03T12:41:16.315Z,1016.81
2017-10-03T12:42:38.154Z,1016.79
2017-10-03T12:44:00.586Z,1016.78
2017-10-03T12:45:23.043Z,1016.81
2017-10-03T12:46:44.946Z,1016.74
2017-10-03T12:48:07.422Z,1016.77
2017-10-03T12:49:30.253Z,1016.84
2017-10-03T12:50:52.398Z,1016.82
2017-10-03T12:52:14.866Z,1016.84
2017-10-03T12:53:37.333Z,1016.79
2017-10-03T12:54:59.285Z,1016.83
2017-10-03T12:56:21.763Z,1016.76
2017-10-03T12:57:44.240Z,1016.8
2017-10-03T12:59:06.100Z,1016.86
2017-10-03T13:00:28.245Z,1016.89
2017-10-03T13:01:50.733Z,1016.82
2017-10-03T13:03:12.561Z,1016.81
2017-10-03T13:04:35.033Z,1016.83
2017-10-03T13:05:57.493Z,1016.82
2017-10-03T13:07:19.344Z,1016.83
2017-10-03T13:08:41.876Z,1016.85
2017-10-03T13:10:04.344Z,1016.85
2017-10-03T13:11:26.484Z,1016.85
2017-10-03T13:12:48.976Z,1016.84
2017-10-03T13:14:11.246Z,1016.86
2017-10-03T13:15:33.696Z,1016.88
2017-10-03T13:16:56.551Z,1016.84
2017-10-03T13:18:18.674Z,1016.83
2017-10-03T13:19:40.823Z,1016.85
2017-10-03T13:21:02.684Z,1016.84
2017-10-03T13:22:25.505Z,1016.88
2017-10-03T13:23:47.685Z,1016.94
2017-10-03T13:25:10.175Z,1016.99
2017-10-03T13:26:32.659Z,1017.09
2017-10-03T13:27:55.125Z,1017.07
2017-10-03T13:29:17.633Z,1017
2017-10-03T13:30:39.523Z,1017.07
2017-10-03T13:32:01.373Z,1017.08
2017-10-03T13:33:23.532Z,1017.04
2017-10-03T13:34:46.203Z,1017.12
2017-10-03T13:36:08.059Z,1017.14
2017-10-03T13:37:30.223Z,1017.1
2017-10-03T13:38:52.116Z,1017.16
2017-10-03T13:40:14.364Z,1017.15
2017-10-03T13:41:36.565Z,1017.23
2017-10-03T13:42:59.044Z,1017.15
2017-10-03T13:44:20.886Z,1017.21
2017-10-03T13:45:42.802Z,1017.27
2017-10-03T13:47:05.304Z,1017.37
2017-10-03T13:48:27.808Z,1017.34
2017-10-03T13:49:50.326Z,1017.39
2017-10-03T13:51:12.504Z,1017.37
2017-10-03T13:52:34.794Z,1017.4
2017-10-03T13:53:56.785Z,1017.39
2017-10-03T13:55:18.643Z,1017.41
2017-10-03T13:56:40.246Z,1017.37
2017-10-03T13:58:02.732Z,1017.37
2017-10-03T13:59:24.658Z,1017.37
2017-10-03T14:00:47.584Z,1017.38
2017-10-03T14:02:09.870Z,1017.33
2017-10-03T14:03:32.457Z,1017.37
2017-10-03T14:04:54.655Z,1017.42
2017-10-03T14:06:17.170Z,1017.49
2017-10-03T14:07:39.637Z,1017.5
2017-10-03T14:09:02.114Z,1017.46
2017-10-03T14:10:23.944Z,1017.45
2017-10-03T14:11:46.614Z,1017.4
2017-10-03T14:13:08.803Z,1017.43
2017-10-03T14:14:30.646Z,1017.45
2017-10-03T14:15:53.143Z,1017.43
2017-10-03T14:17:15.007Z,1017.47
2017-10-03T14:18:37.643Z,1017.5
2017-10-03T14:19:59.181Z,1017.54
2017-10-03T14:21:21.344Z,1017.57
2017-10-03T14:22:43.202Z,1017.53
2017-10-03T14:24:05.121Z,1017.54
2017-10-03T14:25:27.752Z,1017.59
2017-10-03T14:26:50.249Z,1017.55
2017-10-03T14:28:13.090Z,1017.49
2017-10-03T14:29:35.274Z,1017.45
2017-10-03T14:30:57.442Z,1017.54
2017-10-03T14:32:19.918Z,1017.62
2017-10-03T14:33:42.785Z,1017.61
2017-10-03T14:35:04.964Z,1017.68
2017-10-03T14:36:27.126Z,1017.75
2017-10-03T14:37:49.693Z,1017.69
2017-10-03T14:39:12.511Z,1017.73
2017-10-03T14:40:34.969Z,1017.72
2017-10-03T14:41:57.144Z,1017.82
2017-10-03T14:43:19.065Z,1017.83
2017-10-03T14:44:41.896Z,1017.87
2017-10-03T14:46:04.421Z,1017.87
2017-10-03T14:47:26.284Z,1017.88
2017-10-03T14:48:48.784Z,1017.91
2017-10-03T14:50:11.281Z,1017.9
2017-10-03T14:51:33.456Z,1017.88
2017-10-03T14:52:55.966Z,1017.91
2017-10-03T14:54:18.514Z,1017.97
2017-10-03T14:55:41.030Z,1018.02
2017-10-03T14:57:03.553Z,1018.06
2017-10-03T14:58:26.082Z,1018.09
2017-10-03T14:59:48.243Z,1018.02
2017-10-03T15:01:10.073Z,1017.96
2017-10-03T15:02:32.283Z,1017.95
2017-10-03T15:03:54.133Z,1018.06
2017-10-03T15:05:16.295Z,1018
2017-10-03T15:06:38.822Z,1018.04
2017-10-03T15:08:00.685Z,1018.06
2017-10-03T15:09:22.893Z,1018.08
2017-10-03T15:10:45.453Z,1018.1
2017-10-03T15:12:07.652Z,1018.12
2017-10-03T15:13:29.487Z,1018.12
2017-10-03T15:14:51.674Z,1018.13
2017-10-03T15:16:13.177Z,1018.09
2017-10-03T15:17:35.722Z,1018.16
2017-10-03T15:18:58.225Z,1018.14
2017-10-03T15:20:20.402Z,1018.12
2017-10-03T15:21:42.675Z,1018.19
2017-10-03T15:23:04.879Z,1018.22
2017-10-03T15:24:27.401Z,1018.29
2017-10-03T15:25:49.895Z,1018.29
2017-10-03T15:27:12.543Z,1018.35
2017-10-03T15:28:35.376Z,1018.35
2017-10-03T15:29:57.853Z,1018.36
2017-10-03T15:31:19.754Z,1018.36
2017-10-03T15:32:42.226Z,1018.39
2017-10-03T15:34:04.385Z,1018.41
2017-10-03T15:35:26.692Z,1018.32
2017-10-03T15:36:48.895Z,1018.48
2017-10-03T15:38:11.445Z,1018.48
2017-10-03T15:39:33.614Z,1018.57
2017-10-03T15:40:56.154Z,1018.63
2017-10-03T15:42:18.654Z,1018.58
2017-10-03T15:43:40.893Z,1018.64
2017-10-03T15:45:03.033Z,1018.63
2017-10-03T15:46:25.203Z,1018.7
